Priwall — V2OX8 — position and weather

sailwx.info

Track history (hours):
 
Tides and Currents Weather Stations Pressure Air Temp Water Temp Dewpoint Dewpoint Depression Visibility Wind Speed Wind Dir Waves Ship Positions

Priwall

Last reported at 2014-Aug-01 15:33 UTC. Time now 2014-Aug-01 15:55 UTC.
Position N 53°27' E 004°54'.

Length 88 m; draft 3.8 m.

Type: Cargo ship. MMSI: 304739000.

Date/timePositionNaut miles runAvg speedWind from/ knotsBaromVisibWave heightAir tempDewpointWater temp
2014-Aug-01 15:33N 53°27' E 004°54'8 8.2
2014-Aug-01 14:33N 53°22' E 004°42'9 8.9
2014-Aug-01 13:33N 53°14' E 004°35'31 9.1
2014-Aug-01 10:06N 52°47' E 004°10'6 9.5
2014-Aug-01 09:31N 52°43' E 004°04'10 9.9
2014-Aug-01 08:32N 52°36' E 003°53'1110.3
2014-Aug-01 07:30N 52°28' E 003°41'1010.6
2014-Aug-01 06:31N 52°21' E 003°29'1211.0
2014-Aug-01 05:27N 52°13' E 003°15'4310.9
2014-Aug-01 01:31N 51°40' E 002°30'9 9.3
2014-Aug-01 00:32N 51°33' E 002°21'8 8.3
2014-Jul-31 23:33N 51°26' E 002°13'9 8.1
2014-Jul-31 22:27N 51°18' E 002°08'8 7.8
2014-Jul-31 21:29N 51°13' E 001°59'8 8.3
2014-Jul-31 20:32N 51°08' E 001°50'11 8.7
2014-Jul-31 19:14N 50°60' E 001°37'6 9.2
2014-Jul-31 18:33N 50°55' E 001°31'47 9.3
2014-Jul-31 13:33N 50°24' E 000°35'  
Track history (hours):
 
Tides and Currents Weather Stations Pressure Air Temp Water Temp Dewpoint Dewpoint Depression Visibility Wind Speed Wind Dir Waves Ship Positions

Priwall

Last reported at 2014-Aug-01 15:33 UTC. Time now 2014-Aug-01 15:55 UTC.
Position N 53°27' E 004°54'.

Length 88 m; draft 3.8 m.

Type: Cargo ship. MMSI: 304739000.

Date/timePositionNaut miles runAvg speedWind from/ knotsBaromVisibWave heightAir tempDewpointWater temp
2014-Aug-01 15:33N 53°27' E 004°54'8 8.2
2014-Aug-01 14:33N 53°22' E 004°42'9 8.9
2014-Aug-01 13:33N 53°14' E 004°35'31 9.1
2014-Aug-01 10:06N 52°47' E 004°10'6 9.5
2014-Aug-01 09:31N 52°43' E 004°04'10 9.9
2014-Aug-01 08:32N 52°36' E 003°53'1110.3
2014-Aug-01 07:30N 52°28' E 003°41'1010.6
2014-Aug-01 06:31N 52°21' E 003°29'1211.0
2014-Aug-01 05:27N 52°13' E 003°15'4310.9
2014-Aug-01 01:31N 51°40' E 002°30'9 9.3
2014-Aug-01 00:32N 51°33' E 002°21'8 8.3
2014-Jul-31 23:33N 51°26' E 002°13'9 8.1
2014-Jul-31 22:27N 51°18' E 002°08'8 7.8
2014-Jul-31 21:29N 51°13' E 001°59'8 8.3
2014-Jul-31 20:32N 51°08' E 001°50'11 8.7
2014-Jul-31 19:14N 50°60' E 001°37'6 9.2
2014-Jul-31 18:33N 50°55' E 001°31'47 9.3
2014-Jul-31 13:33N 50°24' E 000°35'  

Dump ship's entire track history